Time;durP1;ratioP1;P1;durP2;ratioP2;P2;SDS_P1;SDS_P2;PMS_P1;PMS_P2;Temp;Humidity;BMP_temperature;BMP_pressure;BME280_temperature;BME280_humidity;BME280_pressure;Samples;Min_cycle;Max_cycle;Signal;HPM_P1;HPM_P2
2021/07/16 00:00:13;;;;;;;10.05;4.60;;;;;;;17.33;100.00;100442.78;5047244;28;20502;-83
2021/07/16 00:02:42;;;;;;;5.40;4.50;;;;;;;17.33;100.00;100453.47;5042619;28;20045;-83
2021/07/16 00:05:09;;;;;;;6.20;4.07;;;;;;;17.30;100.00;100447.53;5040164;28;20077;-83
2021/07/16 00:07:41;;;;;;;6.25;4.57;;;;;;;17.28;100.00;100454.81;5050577;28;20060;-83
2021/07/16 00:10:12;;;;;;;5.10;4.22;;;;;;;17.27;100.00;100463.81;5050144;28;20053;-82
2021/07/16 00:12:39;;;;;;;4.82;4.28;;;;;;;17.30;100.00;100448.38;5041936;28;20084;-83
2021/07/16 00:15:08;;;;;;;7.05;4.63;;;;;;;17.32;100.00;100454.44;5059193;28;20124;-83
2021/07/16 00:17:35;;;;;;;6.90;4.45;;;;;;;17.33;100.00;100452.63;5068953;28;20065;-81
2021/07/16 00:20:03;;;;;;;5.80;4.45;;;;;;;17.30;100.00;100448.38;5081830;28;20084;-81
2021/07/16 00:22:29;;;;;;;4.70;4.20;;;;;;;17.27;100.00;100447.75;5062595;28;20067;-81
2021/07/16 00:24:56;;;;;;;6.32;4.10;;;;;;;17.31;100.00;100446.56;5055057;28;20049;-81
2021/07/16 00:27:23;;;;;;;5.95;4.50;;;;;;;17.32;100.00;100440.22;5063778;28;20048;-79
2021/07/16 00:29:51;;;;;;;5.90;4.93;;;;;;;17.35;100.00;100437.31;5071669;28;20075;-80
2021/07/16 00:32:18;;;;;;;6.93;4.85;;;;;;;17.31;100.00;100434.03;5053254;28;20040;-84
2021/07/16 00:34:44;;;;;;;8.88;4.90;;;;;;;17.25;100.00;100438.97;5073350;28;20072;-81
2021/07/16 00:37:11;;;;;;;6.03;4.32;;;;;;;17.23;100.00;100447.09;5052755;28;20117;-82
2021/07/16 00:39:38;;;;;;;5.15;4.20;;;;;;;17.25;100.00;100455.03;5075308;28;20092;-81
2021/07/16 00:42:05;;;;;;;6.18;4.05;;;;;;;17.27;100.00;100448.59;5068572;28;20063;-81
2021/07/16 00:44:37;;;;;;;6.35;3.88;;;;;;;17.27;100.00;100434.38;5058714;28;20048;-81
2021/07/16 00:47:07;;;;;;;4.95;4.10;;;;;;;17.31;100.00;100447.41;5050195;28;20053;-83
2021/07/16 00:49:34;;;;;;;7.40;4.40;;;;;;;17.31;100.00;100458.13;5038316;28;20048;-83
2021/07/16 00:52:02;;;;;;;5.05;4.10;;;;;;;17.31;100.00;100467.97;5054990;28;20045;-83
2021/07/16 00:54:31;;;;;;;13.63;4.95;;;;;;;17.26;100.00;100468.31;5059137;28;20056;-83
2021/07/16 00:56:58;;;;;;;6.53;3.55;;;;;;;17.24;100.00;100456.84;5054844;28;20056;-84
2021/07/16 00:59:25;;;;;;;6.72;4.22;;;;;;;17.23;100.00;100459.63;5057570;28;20506;-83
2021/07/16 01:01:56;;;;;;;5.53;3.90;;;;;;;17.22;100.00;100457.91;5051498;28;20088;-83
2021/07/16 01:04:24;;;;;;;4.80;3.85;;;;;;;17.17;100.00;100459.09;5057032;28;20060;-83
2021/07/16 01:06:52;;;;;;;5.95;4.22;;;;;;;17.18;100.00;100468.84;5042173;28;20098;-83
2021/07/16 01:09:21;;;;;;;6.23;4.30;;;;;;;17.16;100.00;100467.25;5041470;28;20064;-83
2021/07/16 01:11:48;;;;;;;5.03;4.05;;;;;;;17.13;100.00;100468.34;5035357;28;20041;-83
2021/07/16 01:14:16;;;;;;;4.32;3.70;;;;;;;17.15;100.00;100473.59;5036047;28;20050;-84
2021/07/16 01:16:43;;;;;;;8.13;4.05;;;;;;;17.14;100.00;100471.88;5021291;28;20046;-83
2021/07/16 01:19:15;;;;;;;4.85;4.18;;;;;;;17.13;100.00;100473.69;5036263;28;20084;-83
2021/07/16 01:21:42;;;;;;;5.45;4.43;;;;;;;17.10;100.00;100471.25;5036008;28;20060;-83
2021/07/16 01:24:09;;;;;;;5.05;4.35;;;;;;;17.12;100.00;100488.03;5040633;28;20072;-83
2021/07/16 01:26:36;;;;;;;8.52;4.90;;;;;;;17.14;100.00;100487.94;5044436;28;20390;-83
2021/07/16 01:29:10;;;;;;;9.68;4.65;;;;;;;17.16;100.00;100500.22;5035707;28;20052;-83
2021/07/16 01:31:37;;;;;;;5.65;4.82;;;;;;;17.18;100.00;100508.97;5035053;28;20053;-84
2021/07/16 01:34:04;;;;;;;9.23;6.18;;;;;;;17.18;100.00;100498.28;5036177;28;20669;-83
2021/07/16 01:36:38;;;;;;;7.90;6.22;;;;;;;17.18;100.00;100495.59;5036418;28;20057;-82
2021/07/16 01:39:04;;;;;;;10.57;6.47;;;;;;;17.22;100.00;100485.53;5030039;28;20085;-83
2021/07/16 01:41:31;;;;;;;10.43;6.65;;;;;;;17.18;100.00;100492.06;5040538;28;20080;-84
2021/07/16 01:43:58;;;;;;;12.25;7.28;;;;;;;17.15;100.00;100469.09;5039916;28;20064;-84
2021/07/16 01:46:24;;;;;;;10.70;7.25;;;;;;;17.09;100.00;100466.00;5028287;28;20496;-83
2021/07/16 01:48:51;;;;;;;11.40;7.68;;;;;;;17.05;100.00;100472.53;5051663;28;20075;-82
2021/07/16 01:51:18;;;;;;;10.18;8.20;;;;;;;16.98;100.00;100463.25;5029347;28;20057;-83
2021/07/16 01:53:45;;;;;;;11.02;7.35;;;;;;;16.91;100.00;100462.84;5049126;28;20141;-83
2021/07/16 01:56:13;;;;;;;11.15;8.32;;;;;;;16.88;100.00;100460.38;5045231;28;20045;-80
2021/07/16 01:58:40;;;;;;;11.82;7.72;;;;;;;16.87;100.00;100458.66;5037605;28;20420;-79
2021/07/16 02:01:14;;;;;;;8.80;7.30;;;;;;;16.86;100.00;100464.97;5038653;28;20062;-83
2021/07/16 02:03:45;;;;;;;12.40;7.82;;;;;;;16.86;100.00;100474.81;5015650;28;20575;-83
2021/07/16 02:06:13;;;;;;;8.68;7.45;;;;;;;16.84;100.00;100477.63;5029123;28;20120;-83
2021/07/16 02:08:40;;;;;;;9.57;7.50;;;;;;;16.86;100.00;100483.69;5015631;28;20063;-83
2021/07/16 02:11:08;;;;;;;8.90;7.32;;;;;;;16.83;100.00;100487.47;5053174;28;20053;-83
2021/07/16 02:13:34;;;;;;;10.73;7.22;;;;;;;16.80;100.00;100492.19;5051260;28;20056;-83
2021/07/16 02:16:02;;;;;;;10.65;7.70;;;;;;;16.76;100.00;100498.69;5057204;28;20576;-84
2021/07/16 02:18:29;;;;;;;11.43;8.38;;;;;;;16.75;100.00;100488.97;5060161;28;20119;-84
2021/07/16 02:20:55;;;;;;;12.32;8.00;;;;;;;16.77;100.00;100493.25;5058701;28;20052;-83
2021/07/16 02:23:26;;;;;;;10.60;8.00;;;;;;;16.77;100.00;100482.53;5069323;28;20071;-82
2021/07/16 02:25:53;;;;;;;13.30;7.90;;;;;;;16.77;100.00;100476.34;5054170;28;20416;-83
2021/07/16 02:28:28;;;;;;;8.40;7.32;;;;;;;16.79;100.00;100466.41;5035581;28;20052;-83
2021/07/16 02:30:56;;;;;;;14.88;8.60;;;;;;;16.84;100.00;100472.28;5050741;28;20048;-82
2021/07/16 02:33:24;;;;;;;12.88;8.77;;;;;;;16.82;100.00;100471.53;5037696;28;20080;-82
2021/07/16 02:35:52;;;;;;;9.75;8.25;;;;;;;16.83;100.00;100471.44;5063689;28;20049;-82
2021/07/16 02:38:22;;;;;;;10.38;7.80;;;;;;;16.80;100.00;100470.78;5054226;28;20047;-83
2021/07/16 02:40:50;;;;;;;11.02;8.45;;;;;;;16.79;100.00;100472.59;5051047;28;20048;-82
2021/07/16 02:43:17;;;;;;;10.98;8.68;;;;;;;16.79;100.00;100479.75;5053604;28;20067;-83
2021/07/16 02:45:44;;;;;;;11.85;8.95;;;;;;;16.76;100.00;100479.97;5049041;28;20067;-83
2021/07/16 02:48:12;;;;;;;13.82;8.57;;;;;;;16.76;100.00;100485.31;5054817;28;20076;-83
2021/07/16 02:50:41;;;;;;;15.23;8.77;;;;;;;16.75;100.00;100492.50;5059450;28;20106;-82
2021/07/16 02:53:10;;;;;;;10.30;8.50;;;;;;;16.72;100.00;100495.38;5063506;28;20049;-83
2021/07/16 02:55:38;;;;;;;14.25;8.30;;;;;;;16.72;100.00;100489.19;5058655;28;20124;-82
2021/07/16 02:58:05;;;;;;;12.43;8.55;;;;;;;16.71;100.00;100490.13;5034252;28;20063;-83
2021/07/16 03:00:33;;;;;;;12.75;8.57;;;;;;;16.70;100.00;100486.59;5056240;28;20412;-83
2021/07/16 03:03:00;;;;;;;12.45;8.73;;;;;;;16.68;100.00;100495.72;5058899;28;20152;-82
2021/07/16 03:05:31;;;;;;;12.80;9.00;;;;;;;16.64;100.00;100495.09;5073756;28;20041;-83
2021/07/16 03:07:58;;;;;;;15.67;9.23;;;;;;;16.62;100.00;100502.31;5075750;28;20037;-83
2021/07/16 03:10:40;;;;;;;11.95;8.48;;;;;;;16.60;100.00;100495.38;5077630;28;20053;-83
2021/07/16 03:13:10;;;;;;;15.13;8.68;;;;;;;16.57;100.00;100500.91;5056841;28;20067;-82
2021/07/16 03:15:38;;;;;;;10.20;8.65;;;;;;;16.55;100.00;100508.19;5061432;28;20139;-83
2021/07/16 03:18:05;;;;;;;11.35;8.95;;;;;;;16.55;100.00;100506.38;5065826;28;20411;-82
2021/07/16 03:20:41;;;;;;;15.88;9.02;;;;;;;16.57;100.00;100507.13;5057476;28;20064;-82
2021/07/16 03:23:09;;;;;;;10.57;8.50;;;;;;;16.57;100.00;100508.94;5059121;28;20087;-83
2021/07/16 03:25:37;;;;;;;13.82;9.27;;;;;;;16.58;100.00;100513.31;5063057;28;20049;-82
2021/07/16 03:28:07;;;;;;;11.98;8.90;;;;;;;16.52;100.00;100511.97;5071596;28;20065;-82
2021/07/16 03:30:35;;;;;;;12.82;8.80;;;;;;;16.57;100.00;100514.28;5064676;28;20056;-82
2021/07/16 03:33:03;;;;;;;13.45;8.77;;;;;;;16.60;100.00;100511.41;5050857;28;20055;-82
2021/07/16 03:35:30;;;;;;;14.32;9.43;;;;;;;16.60;100.00;100506.91;5056341;28;20040;-83
2021/07/16 03:37:57;;;;;;;13.10;8.23;;;;;;;16.56;100.00;100509.91;5054877;28;20045;-82
2021/07/16 03:40:29;;;;;;;13.57;9.45;;;;;;;16.57;100.00;100515.13;5038010;28;20047;-82
2021/07/16 03:42:57;;;;;;;14.48;8.98;;;;;;;16.57;100.00;100517.81;5046994;28;20041;-82
2021/07/16 03:45:25;;;;;;;11.30;8.52;;;;;;;16.59;100.00;100515.88;5052005;28;20645;-82
2021/07/16 03:47:53;;;;;;;11.13;8.90;;;;;;;16.64;100.00;100523.63;5054035;28;20559;-83
2021/07/16 03:50:21;;;;;;;13.88;8.32;;;;;;;16.62;100.00;100514.81;5057372;28;20049;-83
2021/07/16 03:52:51;;;;;;;18.08;10.30;;;;;;;16.62;100.00;100514.81;5052076;28;20050;-82
2021/07/16 03:55:18;;;;;;;12.15;8.95;;;;;;;16.61;100.00;100518.47;5057284;28;20063;-83
2021/07/16 03:57:49;;;;;;;11.50;8.20;;;;;;;16.62;100.00;100509.47;5066125;28;20059;-83
2021/07/16 04:00:25;;;;;;;13.65;8.68;;;;;;;16.66;100.00;100522.56;5041471;28;20049;-83
2021/07/16 04:02:52;;;;;;;14.23;8.70;;;;;;;16.66;100.00;100516.38;5063041;28;20059;-81
2021/07/16 04:05:22;;;;;;;10.52;8.65;;;;;;;16.66;100.00;100527.91;5056855;28;20042;-81
2021/07/16 04:07:50;;;;;;;10.77;8.35;;;;;;;16.70;100.00;100517.84;5057640;28;20077;-83
2021/07/16 04:10:22;;;;;;;12.00;8.55;;;;;;;16.74;100.00;100525.53;5050081;28;20156;-82
2021/07/16 04:13:01;;;;;;;13.60;9.07;;;;;;;16.80;100.00;100513.56;5034845;28;20087;-82
2021/07/16 04:15:30;;;;;;;10.52;7.95;;;;;;;16.84;100.00;100526.59;5059782;28;20053;-81
2021/07/16 04:17:59;;;;;;;15.02;8.88;;;;;;;16.88;100.00;100526.38;5060003;28;20045;-83
2021/07/16 04:20:27;;;;;;;12.00;8.70;;;;;;;16.86;100.00;100526.50;5058173;28;20058;-82
2021/07/16 04:22:56;;;;;;;11.82;8.48;;;;;;;16.87;100.00;100530.03;5057909;28;20056;-82
2021/07/16 04:25:23;;;;;;;12.00;8.55;;;;;;;16.88;100.00;100527.25;5044795;28;20090;-83
2021/07/16 04:27:52;;;;;;;12.57;8.82;;;;;;;16.92;100.00;100531.41;5049957;28;20049;-83
2021/07/16 04:30:21;;;;;;;10.32;8.35;;;;;;;16.97;100.00;100533.78;5049486;28;20045;-83
2021/07/16 04:32:49;;;;;;;13.70;8.23;;;;;;;17.01;100.00;100537.91;5060475;28;20104;-83
2021/07/16 04:35:18;;;;;;;12.80;8.82;;;;;;;17.02;100.00;100537.81;5048208;28;20068;-82
2021/07/16 04:37:45;;;;;;;12.02;8.63;;;;;;;17.00;100.00;100538.91;5026834;28;20054;-83
2021/07/16 04:40:15;;;;;;;10.57;8.60;;;;;;;16.99;100.00;100543.41;5034892;28;20142;-82
2021/07/16 04:42:45;;;;;;;18.85;8.77;;;;;;;17.02;100.00;100536.94;5026865;28;20104;-80
2021/07/16 04:45:13;;;;;;;9.90;7.93;;;;;;;17.08;100.00;100537.38;5037631;28;20050;-83
2021/07/16 04:47:40;;;;;;;12.88;7.97;;;;;;;17.11;100.00;100539.84;5025269;28;20407;-82
2021/07/16 04:50:07;;;;;;;10.65;7.75;;;;;;;17.14;100.00;100542.31;5030508;28;20635;-83
2021/07/16 04:52:44;;;;;;;10.07;7.63;;;;;;;17.16;100.00;100550.19;5033056;28;20488;-82
2021/07/16 04:55:11;;;;;;;13.77;8.32;;;;;;;17.12;100.00;100541.56;5047162;28;20061;-83
2021/07/16 04:57:39;;;;;;;9.57;8.18;;;;;;;17.12;100.00;100548.72;5019867;28;20069;-83
2021/07/16 05:00:09;;;;;;;11.30;6.85;;;;;;;17.11;100.00;100547.00;5039161;28;20053;-82
2021/07/16 05:02:36;;;;;;;8.35;6.85;;;;;;;17.15;100.00;100551.19;5042464;28;20041;-83
2021/07/16 05:05:04;;;;;;;7.50;6.53;;;;;;;17.21;100.00;100553.41;5034685;28;20069;-83
2021/07/16 05:07:30;;;;;;;13.25;7.38;;;;;;;17.27;100.00;100557.47;5043275;28;20057;-83
2021/07/16 05:09:57;;;;;;;8.88;7.07;;;;;;;17.26;100.00;100561.13;5062582;28;20489;-83
2021/07/16 05:12:24;;;;;;;9.48;6.93;;;;;;;17.23;100.00;100564.00;5057685;28;20048;-82
2021/07/16 05:14:50;;;;;;;9.50;6.85;;;;;;;17.19;100.00;100564.22;5043441;28;20130;-79
2021/07/16 05:17:18;;;;;;;14.63;7.28;;;;;;;17.22;100.00;100562.28;5061215;28;20521;-81
2021/07/16 05:19:45;;;;;;;11.82;6.78;;;;;;;17.23;100.00;100559.50;5056887;28;20049;-82
2021/07/16 05:22:12;;;;;;;10.27;6.95;;;;;;;17.28;100.00;100565.41;5045552;28;20057;-82
2021/07/16 05:24:40;;;;;;;8.10;6.40;;;;;;;17.32;100.00;100563.31;5061917;28;20044;-81
2021/07/16 05:27:06;;;;;;;7.60;6.25;;;;;;;17.33;100.00;100571.25;5057138;28;20105;-81
2021/07/16 05:29:34;;;;;;;10.10;7.07;;;;;;;17.33;100.00;100567.72;5055965;28;20427;-81
2021/07/16 05:32:00;;;;;;;9.65;6.70;;;;;;;17.34;100.00;100572.97;5059222;28;20061;-82
2021/07/16 05:34:27;;;;;;;9.25;7.53;;;;;;;17.44;100.00;100578.53;5060368;28;20559;-82
2021/07/16 05:36:55;;;;;;;8.25;6.28;;;;;;;17.55;100.00;100581.28;5030804;28;20499;-81
2021/07/16 05:39:21;;;;;;;8.75;6.40;;;;;;;17.64;100.00;100580.63;5055517;28;20076;-80
2021/07/16 05:41:48;;;;;;;13.95;7.13;;;;;;;17.70;100.00;100574.81;5059631;28;20485;-81
2021/07/16 05:44:15;;;;;;;9.68;7.05;;;;;;;17.73;100.00;100582.63;5065721;28;20049;-83
2021/07/16 05:46:43;;;;;;;9.98;7.18;;;;;;;17.73;100.00;100579.97;5058299;28;20045;-82
2021/07/16 05:49:09;;;;;;;9.55;6.90;;;;;;;17.72;100.00;100588.09;5057386;28;20045;-83
2021/07/16 05:51:36;;;;;;;9.85;6.65;;;;;;;17.76;100.00;100585.09;5057043;28;20049;-83
2021/07/16 05:54:03;;;;;;;9.50;6.68;;;;;;;17.83;100.00;100602.41;5079913;28;20104;-83
2021/07/16 05:56:30;;;;;;;9.32;7.32;;;;;;;17.86;100.00;100586.13;5073002;28;20139;-84
2021/07/16 05:58:56;;;;;;;10.55;7.13;;;;;;;17.92;100.00;100597.34;5057953;28;20029;-83
2021/07/16 06:01:23;;;;;;;10.35;6.78;;;;;;;17.94;100.00;100603.47;5056872;28;20097;-83
2021/07/16 06:03:51;;;;;;;9.77;7.20;;;;;;;17.95;100.00;100599.78;5065960;28;20080;-83
2021/07/16 06:06:18;;;;;;;10.02;7.80;;;;;;;17.92;100.00;100610.75;5056300;28;20065;-83
2021/07/16 06:08:47;;;;;;;10.45;8.48;;;;;;;17.91;100.00;100612.56;5069573;28;20529;-83
2021/07/16 06:11:14;;;;;;;12.30;8.48;;;;;;;17.88;100.00;100610.97;5045503;28;20057;-83
2021/07/16 06:13:41;;;;;;;12.63;9.27;;;;;;;17.86;100.00;100612.03;5053237;28;20063;-84
2021/07/16 06:16:08;;;;;;;9.68;7.70;;;;;;;17.88;100.00;100612.78;5057294;28;20029;-84
2021/07/16 06:18:37;;;;;;;12.80;8.40;;;;;;;17.92;100.00;100611.59;5059065;28;20059;-83
2021/07/16 06:21:06;;;;;;;12.38;9.35;;;;;;;18.01;100.00;100616.28;5059305;28;20121;-83
2021/07/16 06:23:32;;;;;;;13.07;9.10;;;;;;;18.05;100.00;100625.81;5055420;28;20056;-82
2021/07/16 06:26:00;;;;;;;11.05;9.13;;;;;;;18.11;100.00;100621.78;5056586;28;20136;-82
2021/07/16 06:28:27;;;;;;;13.18;8.98;;;;;;;18.15;100.00;100629.50;5048127;28;20052;-82
2021/07/16 06:30:53;;;;;;;13.57;9.38;;;;;;;18.15;100.00;100623.28;5024231;28;20056;-82
2021/07/16 06:33:20;;;;;;;15.23;9.52;;;;;;;18.12;100.00;100627.03;5040262;28;20069;-83
2021/07/16 06:35:47;;;;;;;11.35;9.15;;;;;;;18.15;100.00;100631.31;5036700;28;20055;-82
2021/07/16 06:38:14;;;;;;;15.18;9.10;;;;;;;18.26;100.00;100639.41;5035009;28;20045;-82
2021/07/16 06:40:41;;;;;;;13.65;9.27;;;;;;;18.38;100.00;100641.19;5034800;28;20140;-81
2021/07/16 06:43:10;;;;;;;16.92;11.98;;;;;;;18.43;100.00;100643.50;5037481;28;20056;-82
2021/07/16 06:45:37;;;;;;;13.98;10.50;;;;;;;18.43;100.00;100644.34;5043410;28;20050;-83
2021/07/16 06:48:05;;;;;;;13.85;9.43;;;;;;;18.43;100.00;100649.72;5036818;28;20049;-82
2021/07/16 06:50:37;;;;;;;12.05;8.95;;;;;;;18.39;100.00;100658.97;5034453;28;20049;-82
2021/07/16 06:53:04;;;;;;;11.93;9.30;;;;;;;18.39;100.00;100653.63;5038270;28;20049;-82
2021/07/16 06:55:31;;;;;;;13.77;9.90;;;;;;;18.40;100.00;100658.00;5048333;28;20145;-82
2021/07/16 06:57:57;;;;;;;14.80;9.70;;;;;;;18.37;100.00;100650.19;5049309;28;20053;-82
2021/07/16 07:00:24;;;;;;;12.63;9.15;;;;;;;18.44;100.00;100648.75;5035255;28;20038;-83
2021/07/16 07:03:14;;;;;;;13.90;9.15;;;;;;;18.73;100.00;100651.91;5036471;28;20191;-82
2021/07/16 07:05:59;;;;;;;11.25;8.95;;;;;;;18.84;100.00;100648.44;5032580;28;20049;-82
2021/07/16 07:08:26;;;;;;;13.57;10.05;;;;;;;18.92;100.00;100652.22;5032711;28;20055;-83
2021/07/16 07:10:53;;;;;;;11.40;8.60;;;;;;;18.87;100.00;100659.78;5043598;28;20057;-82
2021/07/16 07:13:20;;;;;;;13.75;9.52;;;;;;;18.96;100.00;100666.25;5037332;28;20049;-83
2021/07/16 07:15:49;;;;;;;13.68;10.10;;;;;;;19.00;100.00;100665.06;5040887;28;20105;-82
2021/07/16 07:18:16;;;;;;;13.18;9.88;;;;;;;18.98;100.00;100671.50;5032583;28;20053;-83
2021/07/16 07:20:45;;;;;;;14.23;10.45;;;;;;;18.93;100.00;100671.84;5034688;28;20464;-82
2021/07/16 07:23:12;;;;;;;18.40;10.48;;;;;;;18.88;100.00;100674.06;5041550;28;20053;-82
2021/07/16 07:25:38;;;;;;;14.18;10.43;;;;;;;18.84;100.00;100680.63;5037884;28;20054;-80
2021/07/16 07:28:05;;;;;;;18.52;11.07;;;;;;;18.75;100.00;100673.25;5037729;28;20053;-83
2021/07/16 07:30:32;;;;;;;17.10;11.25;;;;;;;18.78;100.00;100683.78;5043689;28;20049;-84
2021/07/16 07:32:59;;;;;;;16.85;10.02;;;;;;;18.74;100.00;100688.50;5041442;28;20053;-84
2021/07/16 07:35:25;;;;;;;17.70;10.63;;;;;;;18.76;100.00;100691.06;5059705;28;20045;-83
2021/07/16 07:37:53;;;;;;;13.82;10.65;;;;;;;18.80;100.00;100685.38;5060462;28;20077;-82
2021/07/16 07:40:20;;;;;;;16.35;11.10;;;;;;;18.88;100.00;100687.47;5053731;28;20104;-80
2021/07/16 07:42:49;;;;;;;13.77;9.80;;;;;;;18.99;100.00;100694.69;5036176;28;20084;-79
2021/07/16 07:45:16;;;;;;;23.05;11.85;;;;;;;19.18;100.00;100689.59;5040880;28;20152;-79
2021/07/16 07:47:44;;;;;;;20.23;11.63;;;;;;;19.33;100.00;100688.41;5048675;28;20108;-84
2021/07/16 07:50:13;;;;;;;20.45;12.25;;;;;;;19.69;100.00;100694.53;5055252;28;20479;-81
2021/07/16 07:52:40;;;;;;;19.90;12.30;;;;;;;19.94;100.00;100687.06;5049100;28;20064;-84
2021/07/16 07:55:08;;;;;;;20.20;11.55;;;;;;;20.20;100.00;100692.13;5041126;28;20538;-83
2021/07/16 07:57:36;;;;;;;17.98;11.30;;;;;;;20.27;99.57;100701.41;5039256;28;20381;-83
2021/07/16 08:00:06;;;;;;;14.20;11.13;;;;;;;20.30;100.00;100695.78;5046571;28;20052;-83
2021/07/16 08:02:33;;;;;;;17.33;10.70;;;;;;;20.33;100.00;100706.28;5036122;28;20479;-83
2021/07/16 08:05:00;;;;;;;15.85;11.27;;;;;;;20.35;98.97;100698.09;5042158;28;20098;-83
2021/07/16 08:07:27;;;;;;;16.00;11.77;;;;;;;20.53;99.76;100697.44;5049091;28;20127;-81
2021/07/16 08:09:53;;;;;;;17.88;13.60;;;;;;;20.65;98.96;100696.41;5050565;28;20130;-80
2021/07/16 08:12:21;;;;;;;17.48;11.77;;;;;;;20.80;96.95;100702.31;5061443;28;20112;-82
2021/07/16 08:14:49;;;;;;;21.98;11.38;;;;;;;20.82;95.67;100700.38;5040262;28;20060;-81
2021/07/16 08:17:16;;;;;;;17.85;11.45;;;;;;;20.74;95.89;100699.31;5065144;28;20036;-84
2021/07/16 08:19:43;;;;;;;17.33;12.73;;;;;;;20.88;96.04;100697.16;5068051;28;20079;-83
2021/07/16 08:22:09;;;;;;;18.23;13.13;;;;;;;21.11;96.90;100703.25;5067327;28;20049;-84
2021/07/16 08:24:38;;;;;;;19.35;14.50;;;;;;;21.28;95.34;100693.75;5072277;28;20111;-81
2021/07/16 08:27:05;;;;;;;21.30;15.70;;;;;;;21.66;94.35;100696.63;5051795;28;20396;-82
2021/07/16 08:29:33;;;;;;;25.83;15.55;;;;;;;22.00;93.39;100702.63;5048669;28;20052;-82
2021/07/16 08:32:00;;;;;;;24.02;16.63;;;;;;;22.19;91.09;100709.06;5061210;28;20057;-82
2021/07/16 08:34:28;;;;;;;23.17;15.88;;;;;;;22.23;89.25;100708.63;5061207;28;20059;-84
2021/07/16 08:36:57;;;;;;;19.83;14.90;;;;;;;22.34;89.04;100710.34;5058243;28;20048;-83
2021/07/16 08:39:27;;;;;;;17.90;14.38;;;;;;;22.46;86.16;100703.81;5067200;28;20060;-82
2021/07/16 08:41:56;;;;;;;17.73;13.75;;;;;;;22.40;85.66;100705.22;5065266;28;20052;-85
2021/07/16 08:44:23;;;;;;;21.35;15.55;;;;;;;22.23;84.72;100710.44;5050237;28;20084;-83
2021/07/16 08:46:50;;;;;;;18.40;14.48;;;;;;;21.93;84.84;100714.03;5058453;28;20117;-80
2021/07/16 08:49:17;;;;;;;18.95;14.70;;;;;;;21.62;85.98;100718.59;5069301;28;20049;-83
2021/07/16 08:51:43;;;;;;;19.23;14.90;;;;;;;21.47;88.54;100718.09;5071200;28;20133;-80
2021/07/16 08:54:14;;;;;;;18.75;14.20;;;;;;;21.28;88.00;100718.84;5054552;28;20121;-82
2021/07/16 08:56:41;;;;;;;17.60;13.43;;;;;;;21.12;88.26;100723.81;5080444;28;20068;-83
2021/07/16 08:59:10;;;;;;;16.88;13.68;;;;;;;21.05;87.82;100721.78;5045862;28;20057;-84
2021/07/16 09:01:41;;;;;;;15.93;12.95;;;;;;;20.98;88.08;100734.91;5040568;28;20131;-83
2021/07/16 09:04:09;;;;;;;18.20;13.43;;;;;;;20.98;88.04;100714.22;5058000;28;20045;-84
2021/07/16 09:06:43;;;;;;;13.57;12.13;;;;;;;21.04;87.69;100718.25;5058201;28;20068;-82
2021/07/16 09:09:11;;;;;;;15.18;13.10;;;;;;;21.15;87.75;100720.00;5055328;28;20527;-83
2021/07/16 09:11:41;;;;;;;15.50;12.80;;;;;;;21.22;87.29;100727.47;5048074;28;20056;-82
2021/07/16 09:14:20;;;;;;;15.63;13.15;;;;;;;21.26;86.87;100719.97;5054766;28;20049;-83
2021/07/16 09:17:02;;;;;;;15.18;11.63;;;;;;;21.22;85.16;100722.09;5055299;28;20045;-82
2021/07/16 09:19:35;;;;;;;13.38;11.73;;;;;;;21.33;84.23;100722.00;5063194;28;20048;-84
2021/07/16 09:22:11;;;;;;;14.52;12.10;;;;;;;21.56;83.13;100713.78;5059186;28;20133;-82
2021/07/16 09:24:42;;;;;;;15.73;12.07;;;;;;;21.73;83.76;100718.50;5057335;28;20053;-81
2021/07/16 09:27:47;;;;;;;13.38;11.02;;;;;;;22.01;82.65;100720.50;5055629;28;20084;-80
2021/07/16 09:30:22;;;;;;;13.45;10.57;;;;;;;22.36;80.46;100714.59;4976121;28;20059;-81
2021/07/16 09:32:56;;;;;;;14.57;11.13;;;;;;;22.57;80.43;100716.31;4978311;28;20053;-80
2021/07/16 09:35:38;;;;;;;13.95;11.00;;;;;;;22.65;80.06;100717.34;5018290;28;20049;-83
2021/07/16 09:38:17;;;;;;;14.70;11.45;;;;;;;22.61;78.19;100713.22;5056057;28;20061;-80
2021/07/16 09:40:46;;;;;;;12.38;11.10;;;;;;;22.69;77.05;100713.34;5033461;28;20051;-80
2021/07/16 09:43:18;;;;;;;12.52;10.32;;;;;;;22.92;78.17;100705.00;5051469;28;20041;-79
2021/07/16 09:45:59;;;;;;;12.38;10.20;;;;;;;23.24;77.76;100705.50;5060215;28;20060;-80
2021/07/16 09:48:29;;;;;;;11.00;9.75;;;;;;;23.47;75.08;100715.94;5068746;28;20131;-82
2021/07/16 09:51:14;;;;;;;11.13;9.55;;;;;;;23.48;73.17;100713.09;5035574;28;20114;-81
2021/07/16 09:53:49;;;;;;;11.63;10.02;;;;;;;23.45;72.84;100718.81;5049352;28;20599;-81
2021/07/16 09:56:23;;;;;;;11.63;9.25;;;;;;;23.33;71.66;100720.81;5055031;28;20080;-81
2021/07/16 09:59:03;;;;;;;12.05;9.10;;;;;;;23.45;73.03;100729.63;5059020;28;20091;-81
2021/07/16 10:01:38;;;;;;;13.13;9.45;;;;;;;23.59;70.87;100725.63;5053523;28;20041;-82
2021/07/16 10:04:07;;;;;;;10.50;9.00;;;;;;;23.67;71.98;100728.44;5057653;28;20183;-80
2021/07/16 10:06:57;;;;;;;12.57;8.75;;;;;;;23.79;70.89;100732.66;5052584;28;20716;-80
2021/07/16 10:09:28;;;;;;;9.93;8.52;;;;;;;23.87;70.41;100738.19;5054879;28;20130;-81
2021/07/16 10:11:56;;;;;;;11.60;9.68;;;;;;;23.91;69.37;100736.91;5055447;28;20104;-79
2021/07/16 10:14:24;;;;;;;11.85;9.23;;;;;;;23.82;69.33;100740.47;5059038;28;20045;-81
2021/07/16 10:16:53;;;;;;;11.25;9.32;;;;;;;23.69;69.24;100734.56;5053310;28;20057;-80
2021/07/16 10:19:21;;;;;;;10.88;9.68;;;;;;;23.61;70.24;100745.28;5049315;28;20045;-80
2021/07/16 10:21:49;;;;;;;12.13;10.15;;;;;;;23.57;70.12;100746.56;5050199;28;20049;-80
2021/07/16 10:24:23;;;;;;;11.52;9.00;;;;;;;23.62;70.72;100744.25;5033415;28;20080;-81
2021/07/16 10:26:59;;;;;;;12.10;9.38;;;;;;;23.84;69.47;100743.03;5049610;28;20641;-81
2021/07/16 10:29:37;;;;;;;11.38;9.20;;;;;;;24.16;68.84;100740.75;5053743;28;20056;-79
2021/07/16 10:32:06;;;;;;;11.88;8.73;;;;;;;24.39;65.97;100749.34;5058471;28;20053;-79
2021/07/16 10:34:35;;;;;;;10.88;8.98;;;;;;;24.54;64.92;100744.25;5055063;28;20069;-81
2021/07/16 10:37:15;;;;;;;10.65;8.88;;;;;;;24.58;65.23;100751.03;5054032;28;20052;-81
2021/07/16 10:39:43;;;;;;;9.63;8.65;;;;;;;24.38;66.03;100753.91;5046382;28;20057;-81
2021/07/16 10:42:31;;;;;;;10.27;8.60;;;;;;;24.01;66.46;100753.06;5051142;28;20051;-84
2021/07/16 10:44:59;;;;;;;12.63;9.23;;;;;;;23.77;66.45;100772.50;5052250;28;20136;-79
2021/07/16 10:47:46;;;;;;;10.57;9.45;;;;;;;23.53;66.33;100769.47;5064083;28;20113;-82
2021/07/16 10:50:46;;;;;;;10.57;8.95;;;;;;;23.57;67.82;100773.59;5051487;28;20127;-81
2021/07/16 10:53:27;;;;;;;9.50;8.43;;;;;;;23.66;67.35;100772.69;5038117;28;20045;-80
2021/07/16 10:55:54;;;;;;;13.50;9.07;;;;;;;23.68;67.96;100773.41;5039908;28;20113;-82
2021/07/16 10:58:31;;;;;;;8.73;7.80;;;;;;;23.63;68.53;100770.28;5057609;28;20107;-83
2021/07/16 11:01:00;;;;;;;9.52;8.25;;;;;;;23.53;68.02;100777.56;5067703;28;20546;-81
2021/07/16 11:03:49;;;;;;;10.80;8.10;;;;;;;23.48;68.45;100775.28;5052476;28;20082;-81
2021/07/16 11:06:19;;;;;;;10.40;8.60;;;;;;;23.51;67.32;100775.03;5061837;28;20045;-81
2021/07/16 11:08:47;;;;;;;9.75;8.55;;;;;;;23.53;67.04;100767.63;5060258;28;20075;-80
2021/07/16 11:11:16;;;;;;;8.93;7.97;;;;;;;23.74;66.65;100768.28;5057258;28;20067;-82
2021/07/16 11:13:56;;;;;;;10.57;7.83;;;;;;;24.13;66.47;100776.22;5062775;28;20045;-80
2021/07/16 11:16:29;;;;;;;;;;;;;;;24.29;65.08;100776.44;5069394;28;20071;-80
2021/07/16 11:19:03;;;;;;;8.93;7.60;;;;;;;24.48;63.81;100773.63;5070040;28;19921;-80
2021/07/16 11:21:40;;;;;;;10.85;8.20;;;;;;;24.63;63.03;100764.97;5066030;28;21130;-80